KESF/ESF METAR and TAF weather

Enter ICAO airport designator
Station Type Date Time Source
KESF METAR 2019/04/25 17:53 UTC NOAA

KESF 251753Z AUTO 28007KT 10SM FEW027 SCT041 24/17 A2979 RMK AO2 SLP086 60006 T02390172 10244 20172 58001


Station Type Date Time Source
KESF Decoded METAR 2019/04/25 17:53 UTC NOAA

ALEXANDRIA ESLER RGNL AIRPORT , LA, United States (KESF) 31-24N 092-18W 28M
Apr 25, 2019 - 01:53 PM EDT / 2019.04.25 1753 UTC
Wind: from the W (280 degrees) at 8 MPH (7 KT):0
Visibility: 10 mile(s):0
Sky conditions: partly cloudy
Temperature: 75.0 F (23.9 C)
Dew Point: 63.0 F (17.2 C)
Relative Humidity: 66%
Pressure (altimeter): 29.79 in. Hg (1008 hPa)
Pressure tendency: 0.00 inches (0.1 hPa) lower than three hours ago
ob: KESF 251753Z AUTO 28007KT 10SM FEW027 SCT041 24/17 A2979 RMK AO2 SLP086 60006 T02390172 10244 20172 58001
cycle: 18

Station Type Date Time Source
KESF TAF UTC NOAA

Error!

Example: see airport list